Погода Джульфана 2 недели

Нахичеванский район, Азербайджан

24 июля-06 августа
  • 24июля
    Сегодня
    +23°
    +39°
    Практически безоблачно
    ВремяПогодаТемператураВлажностьДавлениеВетер, м/сВероятность осадков
    01:00Ясно и безоблачно+28°C52 %695 мм0.9 м/с2 %
    04:00Ясно и безоблачно+26°C57 %694 мм0.4 м/с2 %
    07:00Ясно и безоблачно+25°C56 %695 мм1.0 м/с2 %
    10:00Ясно и безоблачно+30°C39 %695 мм0.7 м/с2 %
    13:00Практически безоблачно+35°C27 %693 мм1.0 м/с2 %
    16:00Практически безоблачно+39°C23 %692 мм3.5 м/с5 %
    19:00Практически безоблачно+33°C39 %692 мм4.4 м/с9 %
    22:00Практически безоблачно+29°C48 %693 мм2.4 м/с6 %
  • 25июля
    Четверг
    +21°
    +35°
    Ясно и безоблачно
    ВремяПогодаТемператураВлажностьДавлениеВетер, м/сВероятность осадков
    01:00Ясно и безоблачно+27°C58 %693 мм1.7 м/с9 %
    04:00Ясно и безоблачно+24°C72 %693 мм0.9 м/с4 %
    07:00Ясно и безоблачно+24°C74 %694 мм0.6 м/с6 %
    10:00Ясно и безоблачно+29°C52 %694 мм2.4 м/с10 %
    13:00Ясно и безоблачно+33°C36 %693 мм4.5 м/с14 %
    16:00Ясно и безоблачно+34°C37 %692 мм5.3 м/с11 %
    19:00Ясно и безоблачно+30°C49 %692 мм4.6 м/с9 %
    22:00Ясно и безоблачно+26°C63 %694 мм2.7 м/с6 %
  • 26июля
    Пятница
    +21°
    +36°
    Ясно и безоблачно
    ВремяПогодаТемператураВлажностьДавлениеВетер, м/сВероятность осадков
    01:00Ясно и безоблачно+25°C71 %694 мм1.6 м/с5 %
    04:00Ясно и безоблачно+23°C77 %694 мм0.9 м/с4 %
    07:00Ясно и безоблачно+23°C75 %694 мм0.6 м/с4 %
    10:00Ясно и безоблачно+29°C50 %695 мм1.9 м/с3 %
    13:00Ясно и безоблачно+33°C35 %693 мм3.1 м/с4 %
    16:00Практически безоблачно+35°C32 %692 мм5.2 м/с3 %
    19:00Ясно и безоблачно+31°C51 %692 мм4.1 м/с3 %
    22:00Ясно и безоблачно+27°C67 %694 мм2.9 м/с2 %
  • 27июля
    Суббота
    +21°
    +36°
    Ясно и безоблачно
    ВремяПогодаТемператураВлажностьДавлениеВетер, м/сВероятность осадков
    01:00Ясно и безоблачно+25°C74 %694 мм1.0 м/с2 %
    04:00Ясно и безоблачно+23°C81 %694 мм0.5 м/с2 %
    07:00Ясно и безоблачно+23°C78 %695 мм0.6 м/с2 %
    10:00Ясно и безоблачно+28°C52 %696 мм0.9 м/с2 %
    13:00Ясно и безоблачно+34°C31 %696 мм1.8 м/с2 %
    16:00Ясно и безоблачно+35°C31 %695 мм5.5 м/с3 %
    19:00Ясно и безоблачно+31°C47 %695 мм5.2 м/с2 %
    22:00Ясно и безоблачно+27°C53 %697 мм4.8 м/с2 %
  • 28июля
    Воскресенье
    +20°
    +33°
    Ясно и безоблачно
    ВремяПогодаТемператураВлажностьДавлениеВетер, м/сВероятность осадков
    01:00Ясно и безоблачно+25°C59 %697 мм2.6 м/с2 %
    04:00Ясно и безоблачно+23°C64 %698 мм1.4 м/с2 %
    07:00Ясно и безоблачно+23°C60 %699 мм1.2 м/с2 %
    10:00Ясно и безоблачно+28°C45 %700 мм2.5 м/с2 %
    13:00Ясно и безоблачно+31°C33 %699 мм4.0 м/с3 %
    16:00Ясно и безоблачно+32°C33 %697 мм4.2 м/с5 %
    19:00Практически безоблачно+28°C47 %698 мм4.0 м/с6 %
    22:00Практически безоблачно+25°C57 %699 мм3.4 м/с21 %
Мы используем cookies
Соглашаюсь